sensor_id;sensor_type;location;lat;lon;timestamp;temperature;humidity
15152;DHT22;7676;50.900;6.234;2022-12-01T00:03:31;7.00;99.90
15152;DHT22;7676;50.900;6.234;2022-12-01T00:08:34;7.10;99.90
15152;DHT22;7676;50.900;6.234;2022-12-01T00:13:37;7.00;99.90
15152;DHT22;7676;50.900;6.234;2022-12-01T00:18:39;6.80;99.90
15152;DHT22;7676;50.900;6.234;2022-12-01T00:23:43;7.10;99.90
15152;DHT22;7676;50.900;6.234;2022-12-01T00:28:57;7.10;99.90
15152;DHT22;7676;50.900;6.234;2022-12-01T00:34:00;6.90;99.90
15152;DHT22;7676;50.900;6.234;2022-12-01T00:39:08;6.90;99.90
15152;DHT22;7676;50.900;6.234;2022-12-01T00:44:10;6.90;99.90
15152;DHT22;7676;50.900;6.234;2022-12-01T00:49:13;6.90;99.90
15152;DHT22;7676;50.900;6.234;2022-12-01T00:54:16;7.00;99.90
15152;DHT22;7676;50.900;6.234;2022-12-01T00:59:19;7.00;99.90
15152;DHT22;7676;50.900;6.234;2022-12-01T01:04:22;6.80;99.90
15152;DHT22;7676;50.900;6.234;2022-12-01T01:09:24;6.90;99.90
15152;DHT22;7676;50.900;6.234;2022-12-01T01:14:27;7.00;99.90
15152;DHT22;7676;50.900;6.234;2022-12-01T01:19:30;7.00;99.90
15152;DHT22;7676;50.900;6.234;2022-12-01T01:24:32;7.10;99.90
15152;DHT22;7676;50.900;6.234;2022-12-01T01:29:35;7.00;99.90
15152;DHT22;7676;50.900;6.234;2022-12-01T01:34:38;7.00;99.90
15152;DHT22;7676;50.900;6.234;2022-12-01T01:39:40;7.00;99.90
15152;DHT22;7676;50.900;6.234;2022-12-01T01:44:57;7.10;99.90
15152;DHT22;7676;50.900;6.234;2022-12-01T01:50:03;6.80;99.90
15152;DHT22;7676;50.900;6.234;2022-12-01T01:55:08;6.80;99.90
15152;DHT22;7676;50.900;6.234;2022-12-01T02:00:13;6.70;99.90
15152;DHT22;7676;50.900;6.234;2022-12-01T02:05:23;6.80;99.90
15152;DHT22;7676;50.900;6.234;2022-12-01T02:42:15;6.50;99.90
15152;DHT22;7676;50.900;6.234;2022-12-01T02:47:39;6.60;99.90
15152;DHT22;7676;50.900;6.234;2022-12-01T02:52:43;6.40;99.90
15152;DHT22;7676;50.900;6.234;2022-12-01T02:57:46;6.30;99.90
15152;DHT22;7676;50.900;6.234;2022-12-01T03:03:18;6.30;99.90
15152;DHT22;7676;50.900;6.234;2022-12-01T03:08:38;6.30;99.90
15152;DHT22;7676;50.900;6.234;2022-12-01T03:24:25;6.40;99.90
15152;DHT22;7676;50.900;6.234;2022-12-01T03:29:35;6.20;99.90
15152;DHT22;7676;50.900;6.234;2022-12-01T03:34:55;6.30;99.90
15152;DHT22;7676;50.900;6.234;2022-12-01T03:40:02;6.20;99.90
15152;DHT22;7676;50.900;6.234;2022-12-01T03:45:13;6.10;99.90
15152;DHT22;7676;50.900;6.234;2022-12-01T03:50:16;6.30;99.90
15152;DHT22;7676;50.900;6.234;2022-12-01T03:55:27;6.40;99.90
15152;DHT22;7676;50.900;6.234;2022-12-01T04:00:30;6.40;99.90
15152;DHT22;7676;50.900;6.234;2022-12-01T04:05:34;6.40;99.90
15152;DHT22;7676;50.900;6.234;2022-12-01T04:10:36;6.30;99.90
15152;DHT22;7676;50.900;6.234;2022-12-01T04:15:39;6.50;99.90
15152;DHT22;7676;50.900;6.234;2022-12-01T04:20:44;6.60;99.90
15152;DHT22;7676;50.900;6.234;2022-12-01T04:25:47;6.30;99.90
15152;DHT22;7676;50.900;6.234;2022-12-01T04:30:49;6.20;99.90
15152;DHT22;7676;50.900;6.234;2022-12-01T04:35:59;6.40;99.90
15152;DHT22;7676;50.900;6.234;2022-12-01T04:41:12;6.40;99.90
15152;DHT22;7676;50.900;6.234;2022-12-01T04:46:15;6.40;99.90
15152;DHT22;7676;50.900;6.234;2022-12-01T04:51:18;6.40;99.90
15152;DHT22;7676;50.900;6.234;2022-12-01T04:56:23;6.50;99.90
15152;DHT22;7676;50.900;6.234;2022-12-01T05:01:26;6.30;99.90
15152;DHT22;7676;50.900;6.234;2022-12-01T05:06:29;6.30;99.90
15152;DHT22;7676;50.900;6.234;2022-12-01T05:11:32;6.40;99.90
15152;DHT22;7676;50.900;6.234;2022-12-01T05:16:35;6.50;99.90
15152;DHT22;7676;50.900;6.234;2022-12-01T05:21:38;6.50;99.90
15152;DHT22;7676;50.900;6.234;2022-12-01T05:26:42;6.30;99.90
15152;DHT22;7676;50.900;6.234;2022-12-01T05:31:45;6.30;99.90
15152;DHT22;7676;50.900;6.234;2022-12-01T05:36:48;6.30;99.90
15152;DHT22;7676;50.900;6.234;2022-12-01T05:41:51;6.30;99.90
15152;DHT22;7676;50.900;6.234;2022-12-01T05:46:54;6.40;99.90
15152;DHT22;7676;50.900;6.234;2022-12-01T05:51:56;6.30;99.90
15152;DHT22;7676;50.900;6.234;2022-12-01T05:56:59;6.30;99.90
15152;DHT22;7676;50.900;6.234;2022-12-01T06:02:01;6.20;99.90
15152;DHT22;7676;50.900;6.234;2022-12-01T06:07:04;6.20;99.90
15152;DHT22;7676;50.900;6.234;2022-12-01T06:12:06;6.10;99.90
15152;DHT22;7676;50.900;6.234;2022-12-01T06:17:09;5.90;99.90
15152;DHT22;7676;50.900;6.234;2022-12-01T06:22:12;5.90;99.90
15152;DHT22;7676;50.900;6.234;2022-12-01T06:27:15;6.00;99.90
15152;DHT22;7676;50.900;6.234;2022-12-01T06:32:18;6.00;99.90
15152;DHT22;7676;50.900;6.234;2022-12-01T06:37:20;6.10;99.90
15152;DHT22;7676;50.900;6.234;2022-12-01T06:42:23;6.20;99.90
15152;DHT22;7676;50.900;6.234;2022-12-01T06:47:26;6.10;99.90
15152;DHT22;7676;50.900;6.234;2022-12-01T06:52:28;6.00;99.90
15152;DHT22;7676;50.900;6.234;2022-12-01T06:57:31;6.20;99.90
15152;DHT22;7676;50.900;6.234;2022-12-01T07:02:34;6.30;99.90
15152;DHT22;7676;50.900;6.234;2022-12-01T07:07:38;6.30;99.90
15152;DHT22;7676;50.900;6.234;2022-12-01T07:12:42;6.20;99.90
15152;DHT22;7676;50.900;6.234;2022-12-01T07:17:44;6.20;99.90
15152;DHT22;7676;50.900;6.234;2022-12-01T07:22:46;6.20;99.90
15152;DHT22;7676;50.900;6.234;2022-12-01T07:27:49;6.30;99.90
15152;DHT22;7676;50.900;6.234;2022-12-01T07:32:51;6.30;99.90
15152;DHT22;7676;50.900;6.234;2022-12-01T07:37:55;6.50;99.90
15152;DHT22;7676;50.900;6.234;2022-12-01T07:42:57;6.70;99.90
15152;DHT22;7676;50.900;6.234;2022-12-01T07:48:01;6.70;99.90
15152;DHT22;7676;50.900;6.234;2022-12-01T07:53:03;6.80;99.90
15152;DHT22;7676;50.900;6.234;2022-12-01T07:58:06;6.80;99.90
15152;DHT22;7676;50.900;6.234;2022-12-01T08:03:09;6.50;99.90
15152;DHT22;7676;50.900;6.234;2022-12-01T08:08:11;6.60;99.90
15152;DHT22;7676;50.900;6.234;2022-12-01T08:13:15;6.30;99.90
15152;DHT22;7676;50.900;6.234;2022-12-01T08:18:18;6.30;99.90
15152;DHT22;7676;50.900;6.234;2022-12-01T08:23:21;6.20;99.90
15152;DHT22;7676;50.900;6.234;2022-12-01T08:28:24;6.20;99.90
15152;DHT22;7676;50.900;6.234;2022-12-01T08:33:27;6.30;99.90
15152;DHT22;7676;50.900;6.234;2022-12-01T08:38:30;6.10;99.90
15152;DHT22;7676;50.900;6.234;2022-12-01T08:43:34;6.20;99.90
15152;DHT22;7676;50.900;6.234;2022-12-01T08:49:02;6.30;99.90
15152;DHT22;7676;50.900;6.234;2022-12-01T08:54:05;6.10;99.90
15152;DHT22;7676;50.900;6.234;2022-12-01T08:59:08;6.30;99.90
15152;DHT22;7676;50.900;6.234;2022-12-01T09:04:11;6.30;99.90
15152;DHT22;7676;50.900;6.234;2022-12-01T09:09:25;6.30;99.90
15152;DHT22;7676;50.900;6.234;2022-12-01T09:14:27;6.50;99.90
15152;DHT22;7676;50.900;6.234;2022-12-01T09:19:30;6.30;99.90
15152;DHT22;7676;50.900;6.234;2022-12-01T09:24:34;6.50;99.90
15152;DHT22;7676;50.900;6.234;2022-12-01T09:29:36;6.50;99.90
15152;DHT22;7676;50.900;6.234;2022-12-01T09:34:39;6.40;99.90
15152;DHT22;7676;50.900;6.234;2022-12-01T09:39:42;6.50;99.90
15152;DHT22;7676;50.900;6.234;2022-12-01T09:44:51;6.80;99.90
15152;DHT22;7676;50.900;6.234;2022-12-01T09:55:13;6.50;99.90
15152;DHT22;7676;50.900;6.234;2022-12-01T10:00:22;6.30;99.90
15152;DHT22;7676;50.900;6.234;2022-12-01T10:05:30;6.30;99.90
15152;DHT22;7676;50.900;6.234;2022-12-01T10:10:42;6.40;99.90
15152;DHT22;7676;50.900;6.234;2022-12-01T10:21:15;6.40;99.90
15152;DHT22;7676;50.900;6.234;2022-12-01T10:37:20;6.40;99.90
15152;DHT22;7676;50.900;6.234;2022-12-01T10:47:29;6.40;99.90
15152;DHT22;7676;50.900;6.234;2022-12-01T10:52:34;6.30;99.90
15152;DHT22;7676;50.900;6.234;2022-12-01T10:57:37;6.30;99.90
15152;DHT22;7676;50.900;6.234;2022-12-01T11:02:42;6.30;99.90
15152;DHT22;7676;50.900;6.234;2022-12-01T11:07:46;6.20;99.90
15152;DHT22;7676;50.900;6.234;2022-12-01T11:18:02;6.20;99.90
15152;DHT22;7676;50.900;6.234;2022-12-01T11:28:18;6.20;99.90
15152;DHT22;7676;50.900;6.234;2022-12-01T11:33:21;6.20;99.90
15152;DHT22;7676;50.900;6.234;2022-12-01T11:38:29;6.40;99.90
15152;DHT22;7676;50.900;6.234;2022-12-01T11:43:36;6.30;99.90
15152;DHT22;7676;50.900;6.234;2022-12-01T11:48:56;6.40;99.90
15152;DHT22;7676;50.900;6.234;2022-12-01T11:54:19;6.30;99.90
15152;DHT22;7676;50.900;6.234;2022-12-01T11:59:24;6.30;99.90
15152;DHT22;7676;50.900;6.234;2022-12-01T12:21:01;6.20;99.90
15152;DHT22;7676;50.900;6.234;2022-12-01T12:31:56;6.00;99.90
15152;DHT22;7676;50.900;6.234;2022-12-01T12:53:19;6.30;99.90
15152;DHT22;7676;50.900;6.234;2022-12-01T12:58:29;6.30;99.90
15152;DHT22;7676;50.900;6.234;2022-12-01T13:09:41;6.30;99.90
15152;DHT22;7676;50.900;6.234;2022-12-01T13:14:54;6.20;99.90
15152;DHT22;7676;50.900;6.234;2022-12-01T13:20:04;6.00;99.90
15152;DHT22;7676;50.900;6.234;2022-12-01T13:25:10;5.90;99.90
15152;DHT22;7676;50.900;6.234;2022-12-01T13:30:24;6.00;99.90
15152;DHT22;7676;50.900;6.234;2022-12-01T13:41:22;6.00;99.90
15152;DHT22;7676;50.900;6.234;2022-12-01T13:57:26;6.40;99.90
15152;DHT22;7676;50.900;6.234;2022-12-01T14:02:31;6.40;99.90
15152;DHT22;7676;50.900;6.234;2022-12-01T14:07:36;6.50;99.90
15152;DHT22;7676;50.900;6.234;2022-12-01T14:12:39;6.30;99.90
15152;DHT22;7676;50.900;6.234;2022-12-01T14:17:45;6.40;99.90
15152;DHT22;7676;50.900;6.234;2022-12-01T14:34:02;6.20;99.90
15152;DHT22;7676;50.900;6.234;2022-12-01T14:39:16;6.30;99.90
15152;DHT22;7676;50.900;6.234;2022-12-01T14:54:58;6.70;99.90
15152;DHT22;7676;50.900;6.234;2022-12-01T15:00:17;6.50;99.90
15152;DHT22;7676;50.900;6.234;2022-12-01T15:05:25;6.80;99.90
15152;DHT22;7676;50.900;6.234;2022-12-01T15:10:32;7.30;99.90
15152;DHT22;7676;50.900;6.234;2022-12-01T15:15:49;6.70;99.90
15152;DHT22;7676;50.900;6.234;2022-12-01T15:21:02;6.50;99.90
15152;DHT22;7676;50.900;6.234;2022-12-01T15:26:17;6.50;99.90
15152;DHT22;7676;50.900;6.234;2022-12-01T15:31:20;6.60;99.90
15152;DHT22;7676;50.900;6.234;2022-12-01T15:36:23;6.70;99.90
15152;DHT22;7676;50.900;6.234;2022-12-01T15:41:26;6.70;99.90
15152;DHT22;7676;50.900;6.234;2022-12-01T15:46:32;6.70;99.90
15152;DHT22;7676;50.900;6.234;2022-12-01T15:51:38;6.50;99.90
15152;DHT22;7676;50.900;6.234;2022-12-01T15:56:41;6.50;99.90
15152;DHT22;7676;50.900;6.234;2022-12-01T16:01:44;6.80;99.90
15152;DHT22;7676;50.900;6.234;2022-12-01T16:06:59;6.70;99.90
15152;DHT22;7676;50.900;6.234;2022-12-01T16:12:06;6.70;99.90
15152;DHT22;7676;50.900;6.234;2022-12-01T16:17:09;6.30;99.90
15152;DHT22;7676;50.900;6.234;2022-12-01T16:22:16;6.50;99.90
15152;DHT22;7676;50.900;6.234;2022-12-01T16:27:24;6.60;99.90
15152;DHT22;7676;50.900;6.234;2022-12-01T16:32:36;6.60;99.90
15152;DHT22;7676;50.900;6.234;2022-12-01T16:37:39;6.50;99.90
15152;DHT22;7676;50.900;6.234;2022-12-01T16:42:42;6.60;99.90
15152;DHT22;7676;50.900;6.234;2022-12-01T16:47:47;6.70;99.90
15152;DHT22;7676;50.900;6.234;2022-12-01T16:52:50;6.80;99.90
15152;DHT22;7676;50.900;6.234;2022-12-01T16:57:52;6.70;99.90
15152;DHT22;7676;50.900;6.234;2022-12-01T17:02:56;6.70;99.90
15152;DHT22;7676;50.900;6.234;2022-12-01T17:07:59;6.80;99.90
15152;DHT22;7676;50.900;6.234;2022-12-01T17:13:02;6.80;99.90
15152;DHT22;7676;50.900;6.234;2022-12-01T17:18:05;6.90;99.90
15152;DHT22;7676;50.900;6.234;2022-12-01T17:23:08;6.90;99.90
15152;DHT22;7676;50.900;6.234;2022-12-01T17:28:11;7.10;99.90
15152;DHT22;7676;50.900;6.234;2022-12-01T17:33:14;7.10;99.90
15152;DHT22;7676;50.900;6.234;2022-12-01T17:38:16;7.00;99.90
15152;DHT22;7676;50.900;6.234;2022-12-01T17:43:21;7.00;99.90
15152;DHT22;7676;50.900;6.234;2022-12-01T17:48:24;6.80;99.90
15152;DHT22;7676;50.900;6.234;2022-12-01T17:53:31;6.70;99.90
15152;DHT22;7676;50.900;6.234;2022-12-01T17:58:34;6.60;99.90
15152;DHT22;7676;50.900;6.234;2022-12-01T18:03:38;6.60;99.90
15152;DHT22;7676;50.900;6.234;2022-12-01T18:08:41;6.50;99.90
15152;DHT22;7676;50.900;6.234;2022-12-01T18:13:47;6.30;99.90
15152;DHT22;7676;50.900;6.234;2022-12-01T18:18:51;6.30;99.90
15152;DHT22;7676;50.900;6.234;2022-12-01T18:23:56;6.40;99.90
15152;DHT22;7676;50.900;6.234;2022-12-01T18:29:03;6.30;99.90
15152;DHT22;7676;50.900;6.234;2022-12-01T18:34:06;6.30;99.90
15152;DHT22;7676;50.900;6.234;2022-12-01T18:39:10;6.50;99.90
15152;DHT22;7676;50.900;6.234;2022-12-01T18:44:13;6.30;99.90
15152;DHT22;7676;50.900;6.234;2022-12-01T18:49:15;6.20;99.90
15152;DHT22;7676;50.900;6.234;2022-12-01T18:54:18;6.10;99.90
15152;DHT22;7676;50.900;6.234;2022-12-01T18:59:24;6.30;99.90
15152;DHT22;7676;50.900;6.234;2022-12-01T19:04:28;6.10;99.90
15152;DHT22;7676;50.900;6.234;2022-12-01T19:09:30;6.20;99.90
15152;DHT22;7676;50.900;6.234;2022-12-01T19:14:34;6.10;99.90
15152;DHT22;7676;50.900;6.234;2022-12-01T19:19:36;6.20;99.90
15152;DHT22;7676;50.900;6.234;2022-12-01T19:24:39;6.10;99.90
15152;DHT22;7676;50.900;6.234;2022-12-01T19:29:42;6.30;99.90
15152;DHT22;7676;50.900;6.234;2022-12-01T19:34:48;6.40;99.90
15152;DHT22;7676;50.900;6.234;2022-12-01T19:39:51;6.70;99.90
15152;DHT22;7676;50.900;6.234;2022-12-01T19:44:54;6.70;99.90
15152;DHT22;7676;50.900;6.234;2022-12-01T19:49:57;6.50;99.90
15152;DHT22;7676;50.900;6.234;2022-12-01T19:55:00;6.60;99.90
15152;DHT22;7676;50.900;6.234;2022-12-01T20:00:03;6.70;99.90
15152;DHT22;7676;50.900;6.234;2022-12-01T20:05:13;6.60;99.90
15152;DHT22;7676;50.900;6.234;2022-12-01T20:10:16;6.60;99.90
15152;DHT22;7676;50.900;6.234;2022-12-01T20:15:21;6.60;99.90
15152;DHT22;7676;50.900;6.234;2022-12-01T20:20:24;6.60;99.90
15152;DHT22;7676;50.900;6.234;2022-12-01T20:25:26;6.50;99.90
15152;DHT22;7676;50.900;6.234;2022-12-01T20:30:29;6.60;99.90
15152;DHT22;7676;50.900;6.234;2022-12-01T20:35:34;6.60;99.90
15152;DHT22;7676;50.900;6.234;2022-12-01T20:40:41;6.60;99.90
15152;DHT22;7676;50.900;6.234;2022-12-01T20:45:44;6.50;99.90
15152;DHT22;7676;50.900;6.234;2022-12-01T20:50:46;6.40;99.90
15152;DHT22;7676;50.900;6.234;2022-12-01T20:55:49;6.40;99.90
15152;DHT22;7676;50.900;6.234;2022-12-01T21:00:51;6.40;99.90
15152;DHT22;7676;50.900;6.234;2022-12-01T21:05:57;6.20;99.90
15152;DHT22;7676;50.900;6.234;2022-12-01T21:11:04;6.00;99.90
15152;DHT22;7676;50.900;6.234;2022-12-01T21:16:12;6.20;99.90
15152;DHT22;7676;50.900;6.234;2022-12-01T21:21:24;6.20;99.90
15152;DHT22;7676;50.900;6.234;2022-12-01T21:26:28;5.90;99.90
15152;DHT22;7676;50.900;6.234;2022-12-01T21:31:31;5.60;99.90
15152;DHT22;7676;50.900;6.234;2022-12-01T21:36:34;5.20;99.90
15152;DHT22;7676;50.900;6.234;2022-12-01T21:41:36;5.20;99.90
15152;DHT22;7676;50.900;6.234;2022-12-01T21:46:39;5.30;99.90
15152;DHT22;7676;50.900;6.234;2022-12-01T21:51:46;5.30;99.90
15152;DHT22;7676;50.900;6.234;2022-12-01T21:56:56;5.30;99.90
15152;DHT22;7676;50.900;6.234;2022-12-01T22:02:00;5.20;99.90
15152;DHT22;7676;50.900;6.234;2022-12-01T22:07:04;5.30;99.90
15152;DHT22;7676;50.900;6.234;2022-12-01T22:12:27;5.00;99.90
15152;DHT22;7676;50.900;6.234;2022-12-01T22:17:30;5.00;99.90
15152;DHT22;7676;50.900;6.234;2022-12-01T22:22:35;5.00;99.90
15152;DHT22;7676;50.900;6.234;2022-12-01T22:27:40;4.80;99.90
15152;DHT22;7676;50.900;6.234;2022-12-01T22:32:54;4.80;99.90
15152;DHT22;7676;50.900;6.234;2022-12-01T22:53:29;4.80;99.90
15152;DHT22;7676;50.900;6.234;2022-12-01T22:58:37;4.80;99.90
15152;DHT22;7676;50.900;6.234;2022-12-01T23:03:40;4.80;99.90
15152;DHT22;7676;50.900;6.234;2022-12-01T23:08:43;5.00;99.90
15152;DHT22;7676;50.900;6.234;2022-12-01T23:13:45;5.20;99.90
15152;DHT22;7676;50.900;6.234;2022-12-01T23:18:48;5.00;99.90
15152;DHT22;7676;50.900;6.234;2022-12-01T23:23:51;5.40;99.90
15152;DHT22;7676;50.900;6.234;2022-12-01T23:28:56;4.90;99.90
15152;DHT22;7676;50.900;6.234;2022-12-01T23:34:00;4.80;99.90
15152;DHT22;7676;50.900;6.234;2022-12-01T23:39:09;4.60;99.90
15152;DHT22;7676;50.900;6.234;2022-12-01T23:44:38;4.60;99.90
15152;DHT22;7676;50.900;6.234;2022-12-01T23:49:42;4.50;99.90
15152;DHT22;7676;50.900;6.234;2022-12-01T23:54:47;4.40;99.90
15152;DHT22;7676;50.900;6.234;2022-12-01T23:59:54;4.40;99.90
